Hlavní strana
METAR-TAF:

METAR-TAF

Letiště :

Savonlinna, Finsko

zeměpisná šířka: 61-57N, zeměpisná délka: 028-57E, výška: 95 m

Aktuální stav počasí

Zpráva byla vytvořena před 25 minutami, v 13:20 UTC
Jihojihovýchodní vítr 6 kt
Teplota -3°C
Vlhkost vzduchu 93%
Tlak 1014 hPa
Viditelnost 10 km a více
Zataženo ve výšce 700 ft
slabé sněhové přeháňky

METAR: EFSA 251320Z AUTO 15006KT 9999 -SHSN OVC007 M03/M04 Q1014

Čas: 15:45 (13:45 UTC)


TAF: chybějící

Stav a předpovědi počasí z více než 4 000 letišť (zprávy METAR a TAF).

Červené a žluté tečky na mapě představují dostupné meteorologické stanice.

Když kurzor umístíte na tečku, zobrazí se název stanice.

Pak kliknutím zobrazíte stav a předpověď počasí.

Chcete-li změnit mapu, kliknutím na zelené tlačítko se znaménkem +mapu přiblížíte, kliknutím na zelené tlačítko se znaménkem – mapu oddálíte a kliknutím na zelené šipky přejdete na sousední mapy.


METAR-TAF: